createdAt,value
2023-06-27T00:01:46.128Z,92044.59
2023-06-27T00:04:13.627Z,92040.09
2023-06-27T00:06:42.089Z,92044.47
2023-06-27T00:09:10.804Z,92042.28
2023-06-27T00:11:41.186Z,92027.22
2023-06-27T00:14:10.180Z,92035.47
2023-06-27T00:16:37.739Z,92033.28
2023-06-27T00:19:05.174Z,92043.97
2023-06-27T00:21:32.716Z,92027.22
2023-06-27T00:24:00.332Z,92047.50
2023-06-27T00:26:28.494Z,92054.41
2023-06-27T00:28:55.917Z,92050.31
2023-06-27T00:31:22.543Z,92060.13
2023-06-27T00:33:49.663Z,92061.47
2023-06-27T00:36:16.364Z,92057.81
2023-06-27T00:38:43.132Z,92060.13
2023-06-27T00:41:09.811Z,92067.31
2023-06-27T00:43:36.367Z,92073.50
2023-06-27T00:46:06.419Z,92075.59
2023-06-27T00:48:33.858Z,92064.41
2023-06-27T00:51:01.141Z,92062.94
2023-06-27T00:53:28.093Z,92065.13
2023-06-27T00:55:55.138Z,92074.84
2023-06-27T00:58:22.473Z,92067.06
2023-06-27T01:00:51.709Z,92068.53
2023-06-27T01:03:19.976Z,92051.53
2023-06-27T01:05:47.140Z,92052.97
2023-06-27T01:08:30.893Z,92067.06
2023-06-27T01:11:06.847Z,92052.72
2023-06-27T01:13:42.821Z,92055.63
2023-06-27T01:16:11.260Z,92058.78
2023-06-27T01:18:41.129Z,92055.38
2023-06-27T01:21:11.073Z,92049.94
2023-06-27T01:23:59.263Z,92059.66
2023-06-27T01:26:28.691Z,92058.06
2023-06-27T01:28:55.873Z,92055.16
2023-06-27T01:31:40.679Z,92037.75
2023-06-27T01:34:35.200Z,92046.16
2023-06-27T01:37:08.758Z,92050.53
2023-06-27T01:39:41.434Z,92059.03
2023-06-27T01:42:16.896Z,92034.47
2023-06-27T01:44:47.451Z,92050.53
2023-06-27T01:47:15.672Z,92046.16
2023-06-27T01:49:43.104Z,92057.31
2023-06-27T01:52:13.645Z,92040.31
2023-06-27T01:54:44.666Z,92051.72
2023-06-27T01:57:12.256Z,92033.94
2023-06-27T01:59:39.778Z,92031.53
2023-06-27T02:02:07.152Z,92043.69
2023-06-27T02:04:34.185Z,92041.53
2023-06-27T02:07:00.960Z,92043.00
2023-06-27T02:09:27.591Z,92045.06
2023-06-27T02:11:54.239Z,92046.38
2023-06-27T02:14:20.812Z,92043.94
2023-06-27T02:16:48.645Z,92041.97
2023-06-27T02:19:15.224Z,92040.53
2023-06-27T02:21:41.919Z,92035.16
2023-06-27T02:24:08.653Z,92043.19
2023-06-27T02:26:35.324Z,92039.53
2023-06-27T02:29:02.042Z,92034.06
2023-06-27T02:31:28.759Z,92036.03
2023-06-27T02:33:55.418Z,92034.69
2023-06-27T02:36:23.475Z,92028.22
2023-06-27T02:38:50.770Z,92028.13
2023-06-27T02:41:17.373Z,92035.63
2023-06-27T02:43:43.965Z,92021.06
2023-06-27T02:46:10.555Z,92031.97
2023-06-27T02:48:37.176Z,92039.31
2023-06-27T02:51:03.725Z,92032.59
2023-06-27T02:53:30.303Z,92041.84
2023-06-27T02:55:58.949Z,92045.25
2023-06-27T02:58:25.709Z,92038.03
2023-06-27T03:00:52.250Z,92047.69
2023-06-27T03:03:18.876Z,92041.50
2023-06-27T03:05:45.455Z,92037.81
2023-06-27T03:08:12.112Z,92046.22
2023-06-27T03:10:38.652Z,92039.03
2023-06-27T03:13:05.527Z,92050.47
2023-06-27T03:15:33.765Z,92039.66
2023-06-27T03:18:00.377Z,92053.38
2023-06-27T03:20:27.070Z,92055.59
2023-06-27T03:22:53.792Z,92052.66
2023-06-27T03:25:21.255Z,92049.72
2023-06-27T03:27:47.834Z,92046.81
2023-06-27T03:30:14.723Z,92047.69
2023-06-27T03:32:41.342Z,92044.63
2023-06-27T03:35:08.340Z,92041.56
2023-06-27T03:37:35.395Z,92040.22
2023-06-27T03:40:01.986Z,92028.84
2023-06-27T03:42:28.571Z,92046.22
2023-06-27T03:44:55.443Z,92042.94
2023-06-27T03:47:24.266Z,92032.72
2023-06-27T03:49:51.093Z,92046.56
2023-06-27T03:52:17.928Z,92038.41
2023-06-27T03:54:46.651Z,92036.34
2023-06-27T03:57:13.464Z,92045.09
2023-06-27T03:59:40.113Z,92042.94
2023-06-27T04:02:07.037Z,92053.34
2023-06-27T04:04:33.700Z,92047.25
2023-06-27T04:07:00.364Z,92041.66
2023-06-27T04:09:26.901Z,92036.81
2023-06-27T04:11:53.652Z,92036.22
2023-06-27T04:14:20.236Z,92050.44
2023-06-27T04:16:46.866Z,92049.56
2023-06-27T04:19:13.436Z,92057.94
2023-06-27T04:21:39.952Z,92040.22
2023-06-27T04:24:06.944Z,92056.50
2023-06-27T04:26:33.536Z,92031.94
2023-06-27T04:29:00.137Z,92054.66
2023-06-27T04:31:28.045Z,92059.63
2023-06-27T04:34:00.828Z,92054.78
2023-06-27T04:36:30.247Z,92057.72
2023-06-27T04:38:56.777Z,92061.59
2023-06-27T04:41:23.925Z,92051.88
2023-06-27T04:43:50.528Z,92049.47
2023-06-27T04:46:17.085Z,92044.94
2023-06-27T04:48:44.054Z,92060.63
2023-06-27T04:51:10.576Z,92053.31
2023-06-27T04:53:37.241Z,92055.75
2023-06-27T04:56:03.898Z,92043.22
2023-06-27T04:58:30.480Z,92050.78
2023-06-27T05:00:57.079Z,92030.09
2023-06-27T05:03:23.798Z,92052.13
2023-06-27T05:05:50.658Z,92038.72
2023-06-27T05:08:18.336Z,92040.16
2023-06-27T05:10:45.726Z,92044.69
2023-06-27T05:13:15.961Z,92043.84
2023-06-27T05:15:42.896Z,92056.00
2023-06-27T05:18:09.613Z,92069.13
2023-06-27T05:20:36.495Z,92059.41
2023-06-27T05:23:03.123Z,92055.88
2023-06-27T05:25:31.290Z,92059.69
2023-06-27T05:27:58.062Z,92063.44
2023-06-27T05:30:25.444Z,92080.59
2023-06-27T05:32:51.921Z,92072.91
2023-06-27T05:35:18.551Z,92075.00
2023-06-27T05:37:45.475Z,92061.66
2023-06-27T05:40:12.470Z,92068.94
2023-06-27T05:42:39.802Z,92065.88
2023-06-27T05:45:06.528Z,92073.53
2023-06-27T05:47:33.249Z,92063.09
2023-06-27T05:50:00.135Z,92056.53
2023-06-27T05:52:26.936Z,92057.00
2023-06-27T05:54:53.844Z,92072.56
2023-06-27T05:57:20.384Z,92068.47
2023-06-27T05:59:46.932Z,92072.34
2023-06-27T06:02:13.582Z,92067.47
2023-06-27T06:04:40.217Z,92067.34
2023-06-27T06:07:07.034Z,92078.28
2023-06-27T06:09:33.920Z,92075.97
2023-06-27T06:12:00.643Z,92062.84
2023-06-27T06:14:27.237Z,92066.09
2023-06-27T06:16:54.720Z,92071.34
2023-06-27T06:19:21.341Z,92085.94
2023-06-27T06:21:47.902Z,92064.31
2023-06-27T06:24:15.434Z,92067.47
2023-06-27T06:26:41.961Z,92080.13
2023-06-27T06:29:14.571Z,92068.94
2023-06-27T06:31:42.661Z,92067.47
2023-06-27T06:34:09.703Z,92083.28
2023-06-27T06:36:36.353Z,92077.69
2023-06-27T06:39:03.497Z,92071.88
2023-06-27T06:41:30.236Z,92060.44
2023-06-27T06:43:56.808Z,92064.66
2023-06-27T06:46:25.502Z,92061.88
2023-06-27T06:48:52.808Z,92056.41
2023-06-27T06:51:19.346Z,92056.84
2023-06-27T06:53:45.906Z,92051.19
2023-06-27T06:56:12.545Z,92052.41
2023-06-27T06:58:39.463Z,92052.69
2023-06-27T07:01:06.948Z,92046.81
2023-06-27T07:03:37.828Z,92046.81
2023-06-27T07:06:04.656Z,92046.94
2023-06-27T07:08:31.738Z,92031.03
2023-06-27T07:10:58.289Z,92043.94
2023-06-27T07:13:24.840Z,92044.16
2023-06-27T07:15:51.406Z,92042.72
2023-06-27T07:18:17.960Z,92032.84
2023-06-27T07:20:44.517Z,92044.69
2023-06-27T07:23:11.257Z,92044.91
2023-06-27T07:25:40.295Z,92039.91
2023-06-27T07:28:07.142Z,92037.13
2023-06-27T07:30:33.781Z,92038.56
2023-06-27T07:33:00.663Z,92032.28
2023-06-27T07:35:30.606Z,92036.38
2023-06-27T07:37:57.414Z,92042.25
2023-06-27T07:40:24.094Z,92038.38
2023-06-27T07:42:50.773Z,92023.16
2023-06-27T07:45:17.385Z,92027.69
2023-06-27T07:47:43.985Z,92040.06
2023-06-27T07:50:11.010Z,92027.94
2023-06-27T07:52:37.692Z,92017.97
2023-06-27T07:55:04.517Z,92023.78
2023-06-27T07:57:31.291Z,92021.38
2023-06-27T07:59:57.849Z,92006.81
2023-06-27T08:02:24.552Z,92018.47
2023-06-27T08:04:51.302Z,92015.53
2023-06-27T08:07:17.940Z,92007.25
2023-06-27T08:09:44.546Z,92009.47
2023-06-27T08:12:13.066Z,92025.50
2023-06-27T08:14:41.842Z,92019.91
2023-06-27T08:17:08.502Z,92003.41
2023-06-27T08:19:35.088Z,92015.19
2023-06-27T08:22:01.703Z,91999.00
2023-06-27T08:24:28.331Z,92007.50
2023-06-27T08:26:56.963Z,92014.31
2023-06-27T08:29:25.494Z,92012.63
2023-06-27T08:31:55.403Z,92001.31
2023-06-27T08:34:22.039Z,91997.94
2023-06-27T08:36:48.605Z,92005.84
2023-06-27T08:39:15.265Z,91994.03
2023-06-27T08:41:42.456Z,92007.03
2023-06-27T08:44:09.102Z,92000.72
2023-06-27T08:46:36.661Z,91990.50
2023-06-27T08:49:04.905Z,92017.97
2023-06-27T08:51:36.839Z,92009.19
2023-06-27T08:54:20.649Z,92000.81
2023-06-27T08:56:47.695Z,92002.41
2023-06-27T08:59:20.724Z,91991.44
2023-06-27T09:01:49.122Z,91999.34
2023-06-27T09:04:16.637Z,91996.31
2023-06-27T09:06:43.443Z,91996.53
2023-06-27T09:09:13.394Z,92012.13
2023-06-27T09:11:40.284Z,91998.00
2023-06-27T09:14:07.086Z,92002.03
2023-06-27T09:16:34.658Z,91996.81
2023-06-27T09:19:01.367Z,91987.31
2023-06-27T09:21:33.119Z,91989.25
2023-06-27T09:24:06.714Z,91990.50
2023-06-27T09:26:39.428Z,91982.00
2023-06-27T09:29:05.959Z,91980.06
2023-06-27T09:31:34.237Z,91978.88
2023-06-27T09:34:08.245Z,91978.88
2023-06-27T09:39:17.126Z,91976.78
2023-06-27T09:41:49.143Z,91976.16
2023-06-27T09:44:21.110Z,91985.53
2023-06-27T09:46:49.449Z,91969.13
2023-06-27T09:49:18.226Z,91972.19
2023-06-27T09:51:47.045Z,91968.03
2023-06-27T09:54:16.811Z,91957.97
2023-06-27T09:56:49.838Z,91943.59
2023-06-27T10:02:05.404Z,91965.50
2023-06-27T10:04:42.252Z,91965.84
2023-06-27T10:07:15.197Z,91948.47
2023-06-27T10:09:42.065Z,91964.50
2023-06-27T10:12:09.461Z,91953.09
2023-06-27T10:14:36.141Z,91960.63
2023-06-27T10:17:05.573Z,91949.69
2023-06-27T10:19:35.956Z,91954.78
2023-06-27T10:22:02.953Z,91954.91
2023-06-27T10:24:31.063Z,91955.03
2023-06-27T10:26:59.605Z,91956.38
2023-06-27T10:29:32.095Z,91961.00
2023-06-27T10:31:59.015Z,91941.06
2023-06-27T10:34:25.726Z,91931.22
2023-06-27T10:36:55.485Z,91939.94
2023-06-27T10:39:29.394Z,91940.19
2023-06-27T10:42:02.219Z,91928.56
2023-06-27T10:44:30.040Z,91928.78
2023-06-27T10:47:22.639Z,91911.16
2023-06-27T10:49:50.529Z,91921.97
2023-06-27T10:52:26.948Z,91911.00
2023-06-27T10:55:16.691Z,91912.69
2023-06-27T10:57:51.458Z,91908.34
2023-06-27T11:00:30.784Z,91906.91
2023-06-27T11:02:58.168Z,91906.16
2023-06-27T11:05:38.623Z,91890.88
2023-06-27T11:08:10.348Z,91902.50
2023-06-27T11:10:38.558Z,91912.69
2023-06-27T11:13:22.993Z,91896.91
2023-06-27T11:15:55.126Z,91882.59
2023-06-27T11:18:23.804Z,91912.69
2023-06-27T11:20:51.241Z,91906.91
2023-06-27T11:23:18.752Z,91906.91
2023-06-27T11:25:46.559Z,91909.81
2023-06-27T11:28:17.018Z,91898.50
2023-06-27T11:30:44.056Z,91904.72
2023-06-27T11:33:13.216Z,91889.38
2023-06-27T11:35:41.845Z,91899.31
2023-06-27T11:38:09.922Z,91904.41
2023-06-27T11:40:36.810Z,91877.41
2023-06-27T11:43:07.731Z,91878.13
2023-06-27T11:45:37.437Z,91882.00
2023-06-27T11:48:04.652Z,91868.13
2023-06-27T11:50:31.386Z,91871.03
2023-06-27T11:52:59.367Z,91877.38
2023-06-27T11:55:25.961Z,91875.31
2023-06-27T11:57:57.524Z,91881.59
2023-06-27T12:00:28.415Z,91875.91
2023-06-27T12:02:56.366Z,91874.66
2023-06-27T12:05:26.027Z,91879.03
2023-06-27T12:08:03.548Z,91863.25
2023-06-27T12:10:32.394Z,91873.16
2023-06-27T12:13:00.039Z,91875.94
2023-06-27T12:15:27.845Z,91883.63
2023-06-27T12:18:01.661Z,91878.03
2023-06-27T12:20:50.462Z,91883.84
2023-06-27T12:23:17.015Z,91878.75
2023-06-27T12:25:44.087Z,91872.63
2023-06-27T12:28:12.147Z,91876.91
2023-06-27T12:30:39.018Z,91862.19
2023-06-27T12:33:09.575Z,91872.97
2023-06-27T12:35:37.438Z,91861.91
2023-06-27T12:38:04.487Z,91859.53
2023-06-27T12:40:32.147Z,91841.94
2023-06-27T12:42:59.204Z,91844.00
2023-06-27T12:45:25.823Z,91831.66
2023-06-27T12:47:52.484Z,91842.03
2023-06-27T12:50:19.939Z,91844.31
2023-06-27T12:52:50.445Z,91834.56
2023-06-27T12:55:18.459Z,91826.06
2023-06-27T12:57:45.955Z,91844.75
2023-06-27T13:00:13.581Z,91849.03
2023-06-27T13:02:40.454Z,91836.47
2023-06-27T13:05:08.431Z,91827.84
2023-06-27T13:07:36.017Z,91835.03
2023-06-27T13:10:07.277Z,91823.81
2023-06-27T13:12:33.884Z,91840.53
2023-06-27T13:15:00.528Z,91822.56
2023-06-27T13:17:27.106Z,91825.69
2023-06-27T13:19:53.698Z,91822.06
2023-06-27T13:22:20.288Z,91845.84
2023-06-27T13:24:48.294Z,91831.72
2023-06-27T13:27:14.867Z,91826.53
2023-06-27T13:29:41.478Z,91836.69
2023-06-27T13:32:09.726Z,91827.38
2023-06-27T13:34:36.571Z,91831.28
2023-06-27T13:37:05.299Z,91833.16
2023-06-27T13:39:32.088Z,91827.38
2023-06-27T13:41:58.657Z,91824.66
2023-06-27T13:44:25.221Z,91830.78
2023-06-27T13:46:51.868Z,91836.06
2023-06-27T13:49:19.929Z,91845.72
2023-06-27T13:51:47.232Z,91830.19
2023-06-27T13:54:13.922Z,91829.03
2023-06-27T13:56:40.508Z,91817.22
2023-06-27T13:59:07.108Z,91809.53
2023-06-27T14:01:33.646Z,91811.75
2023-06-27T14:04:01.955Z,91804.16
2023-06-27T14:06:28.614Z,91813.41
2023-06-27T14:08:55.203Z,91804.69
2023-06-27T14:11:21.991Z,91812.66
2023-06-27T14:13:52.164Z,91818.28
2023-06-27T14:16:19.801Z,91821.41
2023-06-27T14:18:46.626Z,91812.66
2023-06-27T14:21:14.092Z,91816.31
2023-06-27T14:23:41.597Z,91821.28
2023-06-27T14:26:09.402Z,91815.38
2023-06-27T14:28:36.390Z,91819.00
2023-06-27T14:31:06.539Z,91818.28
2023-06-27T14:33:33.696Z,91831.25
2023-06-27T14:36:02.630Z,91814.03
2023-06-27T14:38:29.300Z,91812.66
2023-06-27T14:40:55.973Z,91815.81
2023-06-27T14:43:22.695Z,91816.03
2023-06-27T14:45:49.649Z,91810.41
2023-06-27T14:48:16.249Z,91811.97
2023-06-27T14:50:43.674Z,91792.34
2023-06-27T14:53:10.414Z,91787.50
2023-06-27T14:55:37.034Z,91771.72
2023-06-27T14:58:03.700Z,91785.41
2023-06-27T15:00:31.036Z,91786.97
2023-06-27T15:02:57.688Z,91798.19
2023-06-27T15:05:24.830Z,91785.81
2023-06-27T15:07:54.056Z,91795.78
2023-06-27T15:10:22.383Z,91769.22
2023-06-27T15:12:48.974Z,91770.34
2023-06-27T15:15:16.355Z,91773.38
2023-06-27T15:17:43.124Z,91761.88
2023-06-27T15:20:10.259Z,91775.63
2023-06-27T15:22:36.862Z,91771.31
2023-06-27T15:25:03.741Z,91782.81
2023-06-27T15:27:31.532Z,91786.97
2023-06-27T15:29:58.115Z,91770.56
2023-06-27T15:32:24.771Z,91761.03
2023-06-27T15:34:51.510Z,91761.03
2023-06-27T15:37:19.146Z,91777.00
2023-06-27T15:39:45.775Z,91792.75
2023-06-27T15:42:12.334Z,91778.66
2023-06-27T15:44:40.138Z,91778.47
2023-06-27T15:47:13.232Z,91787.69
2023-06-27T15:49:40.285Z,91787.59
2023-06-27T15:52:11.492Z,91764.66
2023-06-27T15:54:38.110Z,91772.44
2023-06-27T15:57:05.529Z,91778.03
2023-06-27T15:59:34.557Z,91773.78
2023-06-27T16:02:01.303Z,91774.94
2023-06-27T16:04:29.054Z,91780.44
2023-06-27T16:06:55.945Z,91765.97
2023-06-27T16:09:22.653Z,91774.72
2023-06-27T16:11:49.431Z,91778.63
2023-06-27T16:14:15.986Z,91766.47
2023-06-27T16:16:42.575Z,91769.19
2023-06-27T16:19:09.128Z,91768.97
2023-06-27T16:21:37.589Z,91779.66
2023-06-27T16:24:04.313Z,91781.72
2023-06-27T16:26:30.842Z,91778.72
2023-06-27T16:28:57.424Z,91779.44
2023-06-27T16:31:23.992Z,91777.78
2023-06-27T16:33:51.405Z,91786.28
2023-06-27T16:36:19.977Z,91787.53
2023-06-27T16:38:47.244Z,91788.38
2023-06-27T16:41:13.865Z,91781.09
2023-06-27T16:43:40.385Z,91780.25
2023-06-27T16:46:07.223Z,91787.53
2023-06-27T16:48:33.747Z,91787.44
2023-06-27T16:51:00.283Z,91796.94
2023-06-27T16:53:26.792Z,91790.22
2023-06-27T16:55:53.370Z,91785.84
2023-06-27T16:58:19.959Z,91785.31
2023-06-27T17:00:46.478Z,91808.25
2023-06-27T17:03:13.170Z,91809.50
2023-06-27T17:05:40.366Z,91797.84
2023-06-27T17:08:07.150Z,91804.91
2023-06-27T17:10:33.672Z,91793.63
2023-06-27T17:13:00.196Z,91799.22
2023-06-27T17:15:27.570Z,91800.56
2023-06-27T17:17:54.048Z,91797.78
2023-06-27T17:20:20.597Z,91807.59
2023-06-27T17:22:47.130Z,91804.69
2023-06-27T17:25:14.688Z,91804.59
2023-06-27T17:27:43.079Z,91805.22
2023-06-27T17:30:09.995Z,91807.16
2023-06-27T17:32:36.563Z,91799.91
2023-06-27T17:35:03.558Z,91814.50
2023-06-27T17:37:30.126Z,91808.19
2023-06-27T17:39:56.648Z,91818.16
2023-06-27T17:42:23.226Z,91810.88
2023-06-27T17:44:49.783Z,91816.56
2023-06-27T17:47:16.431Z,91814.28
2023-06-27T17:49:42.973Z,91819.28
2023-06-27T17:52:09.797Z,91826.19
2023-06-27T17:54:36.349Z,91820.59
2023-06-27T17:57:02.882Z,91824.75
2023-06-27T17:59:29.399Z,91828.88
2023-06-27T18:01:55.989Z,91828.78
2023-06-27T18:04:22.940Z,91828.69
2023-06-27T18:06:49.505Z,91830.63
2023-06-27T18:09:17.169Z,91819.84
2023-06-27T18:11:45.597Z,91835.50
2023-06-27T18:14:12.264Z,91838.78
2023-06-27T18:16:38.808Z,91841.09
2023-06-27T18:19:06.848Z,91829.91
2023-06-27T18:21:33.917Z,91821.38
2023-06-27T18:24:00.636Z,91831.13
2023-06-27T18:26:27.487Z,91822.41
2023-06-27T18:28:54.024Z,91829.66
2023-06-27T18:31:21.072Z,91831.38
2023-06-27T18:33:47.756Z,91832.59
2023-06-27T18:36:14.499Z,91829.91
2023-06-27T18:38:42.545Z,91826.28
2023-06-27T18:41:09.285Z,91829.06
2023-06-27T18:43:36.336Z,91841.72
2023-06-27T18:46:04.090Z,91834.06
2023-06-27T18:48:30.764Z,91833.94
2023-06-27T18:50:57.928Z,91829.34
2023-06-27T18:53:24.507Z,91836.50
2023-06-27T18:55:51.317Z,91827.75
2023-06-27T18:58:17.901Z,91833.72
2023-06-27T19:00:44.439Z,91838.56
2023-06-27T19:03:11.055Z,91817.78
2023-06-27T19:05:39.801Z,91830.09
2023-06-27T19:08:08.533Z,91821.81
2023-06-27T19:10:35.170Z,91837.84
2023-06-27T19:13:05.848Z,91831.88
2023-06-27T19:15:32.573Z,91829.34
2023-06-27T19:18:00.321Z,91840.28
2023-06-27T19:20:27.384Z,91847.84
2023-06-27T19:22:54.922Z,91850.53
2023-06-27T19:25:22.507Z,91838.03
2023-06-27T19:27:49.226Z,91850.06
2023-06-27T19:30:16.562Z,91855.03
2023-06-27T19:32:43.096Z,91862.09
2023-06-27T19:35:11.495Z,91857.81
2023-06-27T19:37:38.860Z,91857.72
2023-06-27T19:40:05.644Z,91868.81
2023-06-27T19:42:32.266Z,91862.97
2023-06-27T19:44:58.905Z,91866.50
2023-06-27T19:47:27.292Z,91880.47
2023-06-27T19:49:54.337Z,91879.88
2023-06-27T19:52:21.048Z,91898.09
2023-06-27T19:54:47.903Z,91900.75
2023-06-27T19:57:14.976Z,91897.84
2023-06-27T19:59:42.202Z,91892.03
2023-06-27T20:02:08.980Z,91899.81
2023-06-27T20:04:38.377Z,91897.63
2023-06-27T20:07:06.828Z,91904.69
2023-06-27T20:09:33.575Z,91905.91
2023-06-27T20:12:00.260Z,91905.22
2023-06-27T20:14:27.021Z,91912.59
2023-06-27T20:16:53.623Z,91906.66
2023-06-27T20:19:20.226Z,91915.41
2023-06-27T20:21:46.797Z,91920.00
2023-06-27T20:24:13.389Z,91914.91
2023-06-27T20:26:39.911Z,91929.00
2023-06-27T20:29:06.506Z,91933.16
2023-06-27T20:31:33.097Z,91925.63
2023-06-27T20:33:59.703Z,91928.56
2023-06-27T20:36:26.263Z,91924.16
2023-06-27T20:38:52.861Z,91919.81
2023-06-27T20:41:21.330Z,91937.66
2023-06-27T20:43:51.253Z,91923.69
2023-06-27T20:46:17.812Z,91930.97
2023-06-27T20:48:44.368Z,91926.38
2023-06-27T20:51:11.380Z,91919.31
2023-06-27T20:53:37.946Z,91932.22
2023-06-27T20:56:04.732Z,91914.69
2023-06-27T20:58:31.271Z,91937.78
2023-06-27T21:00:58.012Z,91936.06
2023-06-27T21:03:24.776Z,91932.94
2023-06-27T21:05:51.504Z,91946.06
2023-06-27T21:08:18.040Z,91931.97
2023-06-27T21:10:45.672Z,91941.56
2023-06-27T21:13:12.325Z,91940.22
2023-06-27T21:15:38.880Z,91935.38
2023-06-27T21:18:05.791Z,91950.66
2023-06-27T21:20:32.736Z,91947.00
2023-06-27T21:22:59.285Z,91947.50
2023-06-27T21:25:25.813Z,91942.16
2023-06-27T21:27:52.548Z,91942.16
2023-06-27T21:30:19.512Z,91949.19
2023-06-27T21:32:46.366Z,91958.94
2023-06-27T21:35:13.124Z,91950.16
2023-06-27T21:37:39.735Z,91958.44
2023-06-27T21:40:07.406Z,91955.41
2023-06-27T21:42:33.963Z,91958.22
2023-06-27T21:45:00.587Z,91971.06
2023-06-27T21:47:27.254Z,91970.56
2023-06-27T21:49:54.216Z,91986.63
2023-06-27T21:52:20.805Z,91976.97
2023-06-27T21:54:47.667Z,91991.47
2023-06-27T21:57:14.248Z,91987.13
2023-06-27T21:59:40.928Z,91988.28
2023-06-27T22:02:08.031Z,91975.66
2023-06-27T22:04:34.684Z,91990.25
2023-06-27T22:07:01.575Z,92000.44
2023-06-27T22:09:28.175Z,91996.19
2023-06-27T22:11:54.813Z,91996.31
2023-06-27T22:14:21.369Z,92006.13
2023-06-27T22:16:47.910Z,92011.84
2023-06-27T22:19:14.609Z,92001.38
2023-06-27T22:21:41.801Z,92015.25
2023-06-27T22:24:08.517Z,92014.41
2023-06-27T22:26:35.101Z,92007.22
2023-06-27T22:29:01.641Z,91982.94
2023-06-27T22:31:28.476Z,91993.88
2023-06-27T22:33:55.244Z,91993.38
2023-06-27T22:36:21.788Z,91994.34
2023-06-27T22:38:48.411Z,91991.56
2023-06-27T22:41:14.960Z,91999.94
2023-06-27T22:43:41.517Z,91974.06
2023-06-27T22:46:08.100Z,91992.88
2023-06-27T22:48:34.674Z,91990.22
2023-06-27T22:51:04.056Z,91978.78
2023-06-27T22:53:30.884Z,91981.72
2023-06-27T22:55:57.425Z,91977.59
2023-06-27T22:58:24.070Z,91970.31
2023-06-27T23:00:50.634Z,91975.41
2023-06-27T23:03:17.286Z,91975.16
2023-06-27T23:05:43.922Z,91979.53
2023-06-27T23:08:10.515Z,91981.97
2023-06-27T23:10:37.622Z,91975.91
2023-06-27T23:13:04.214Z,91981.97
2023-06-27T23:15:31.374Z,91982.69
2023-06-27T23:18:00.962Z,91971.84
2023-06-27T23:20:30.504Z,91959.84
2023-06-27T23:22:58.289Z,91981.22
2023-06-27T23:25:26.827Z,91970.06
2023-06-27T23:27:56.949Z,91961.44
2023-06-27T23:30:26.329Z,91967.41
2023-06-27T23:32:56.221Z,91971.75
2023-06-27T23:35:23.329Z,91958.88
2023-06-27T23:37:49.917Z,91964.25
2023-06-27T23:40:16.535Z,91963.50
2023-06-27T23:42:43.092Z,91957.41
2023-06-27T23:45:10.060Z,91956.22
2023-06-27T23:47:36.658Z,91953.06
2023-06-27T23:50:03.534Z,91966.91
2023-06-27T23:52:30.106Z,91953.56
2023-06-27T23:54:56.661Z,91953.78
2023-06-27T23:57:23.178Z,91952.81
2023-06-27T23:59:49.738Z,91949.03
